Time;durP1;ratioP1;P1;durP2;ratioP2;P2;SDS_P1;SDS_P2;PMS_P1;PMS_P2;Temp;Humidity;BMP_temperature;BMP_pressure;BME280_temperature;BME280_humidity;BME280_pressure;Samples;Min_cycle;Max_cycle;Signal;HPM_P1;HPM_P2
2021/05/22 00:02:11;;;;;;;;;;;15.40;99.90;;;15.11;82.44;100918.72;5033670;28;19925;-64
2021/05/22 00:04:38;;;;;;;;;;;15.40;99.90;;;15.10;82.26;100917.94;5033056;28;19929;-65
2021/05/22 00:07:05;;;;;;;;;;;15.40;99.90;;;15.10;81.47;100923.38;5032810;28;19937;-64
2021/05/22 00:09:33;;;;;;;;;;;15.40;99.90;;;15.10;81.07;100923.38;5033142;28;19951;-64
2021/05/22 00:12:02;;;;;;;;;;;15.40;99.90;;;15.08;80.89;100922.88;5033270;28;19979;-65
2021/05/22 00:14:29;;;;;;;;;;;15.30;99.90;;;15.08;80.42;100919.34;5033127;28;19925;-65
2021/05/22 00:16:56;;;;;;;;;;;15.30;99.90;;;15.04;80.70;100919.22;5032585;28;19929;-64
2021/05/22 00:19:23;;;;;;;;;;;15.30;99.90;;;15.00;80.77;100918.22;5032833;28;19925;-64
2021/05/22 00:21:51;;;;;;;;;;;15.30;99.90;;;14.97;80.88;100918.88;5033216;28;19929;-65
2021/05/22 00:24:18;;;;;;;;;;;15.30;99.90;;;14.97;80.75;100929.75;5032887;28;19979;-65
2021/05/22 00:26:45;;;;;;;;;;;15.30;99.90;;;14.93;80.74;100923.31;5032604;28;19925;-64
2021/05/22 00:29:13;;;;;;;;;;;15.20;99.90;;;14.91;80.86;100925.56;5033076;28;20294;-64
2021/05/22 00:31:41;;;;;;;;;;;15.20;99.90;;;14.89;80.88;100922.38;5032739;28;20390;-65
2021/05/22 00:34:08;;;;;;;;;;;15.20;99.90;;;14.81;81.24;100911.44;5032774;28;19925;-64
2021/05/22 00:36:35;;;;;;;;;;;15.10;99.90;;;14.82;81.08;100899.44;5032039;28;19940;-64
2021/05/22 00:39:03;;;;;;;;;;;15.10;99.90;;;14.77;81.18;100903.91;5032999;28;19925;-64
2021/05/22 00:41:31;;;;;;;;;;;15.10;99.90;;;14.75;81.44;100900.69;5032071;28;19925;-64
2021/05/22 00:43:58;;;;;;;;;;;15.00;99.90;;;14.71;81.39;100909.81;5032655;28;19933;-65
2021/05/22 00:46:26;;;;;;;;;;;15.00;99.90;;;14.66;81.97;100899.88;5031811;28;19925;-64
2021/05/22 00:48:53;;;;;;;;;;;15.00;99.90;;;14.64;82.08;100895.84;5032360;28;19925;-64
2021/05/22 00:51:21;;;;;;;;;;;15.00;99.90;;;14.65;81.39;100900.97;5032437;28;19925;-64
2021/05/22 00:53:48;;;;;;;;;;;15.00;99.90;;;14.62;82.12;100903.53;5032577;28;19929;-64
2021/05/22 00:56:16;;;;;;;;;;;14.90;99.90;;;14.59;81.91;100904.94;5031451;28;20351;-64
2021/05/22 00:58:43;;;;;;;;;;;14.90;99.90;;;14.57;82.11;100893.59;5032695;28;19925;-64
2021/05/22 01:01:10;;;;;;;;;;;14.90;99.90;;;14.56;81.94;100888.47;5032240;28;19929;-64
2021/05/22 01:03:44;;;;;;;;;;;14.90;99.90;;;14.57;81.58;100879.97;5032436;28;19936;-64
2021/05/22 01:06:17;;;;;;;;;;;14.90;99.90;;;14.52;82.13;100890.22;5031678;28;19933;-64
2021/05/22 01:08:45;;;;;;;;;;;14.90;99.90;;;14.53;82.09;100894.53;5032546;28;19983;-64
2021/05/22 01:11:15;;;;;;;;;;;14.90;99.90;;;14.49;82.06;100891.66;5031989;28;19929;-65
2021/05/22 01:13:44;;;;;;;;;;;14.90;99.90;;;14.49;82.48;100891.66;5032269;28;19925;-65
2021/05/22 01:16:12;;;;;;;;;;;14.80;99.90;;;14.46;82.32;100880.59;5031600;28;19925;-64
2021/05/22 01:18:41;;;;;;;;;;;14.80;99.90;;;14.42;82.57;100874.16;5032541;28;19925;-64
2021/05/22 01:21:09;;;;;;;;;;;14.70;99.90;;;14.36;82.83;100883.56;5032069;28;19936;-65
2021/05/22 01:23:39;;;;;;;;;;;14.70;99.90;;;14.35;82.55;100880.03;5032053;28;19925;-64
2021/05/22 01:26:08;;;;;;;;;;;14.70;99.90;;;14.36;82.75;100880.84;5031291;28;19979;-64
2021/05/22 01:28:36;;;;;;;;;;;14.70;99.90;;;14.35;82.42;100873.81;5032367;28;19947;-64
2021/05/22 01:31:03;;;;;;;;;;;14.70;99.90;;;14.35;82.44;100871.88;5031941;28;19933;-64
2021/05/22 01:33:31;;;;;;;;;;;14.70;99.90;;;14.38;82.57;100875.91;5032143;28;19925;-64
2021/05/22 01:35:58;;;;;;;;;;;14.70;99.90;;;14.38;81.97;100878.63;5031475;28;19925;-64
2021/05/22 01:38:25;;;;;;;;;;;14.70;99.90;;;14.37;82.23;100874.31;5031929;28;19948;-64
2021/05/22 01:40:52;;;;;;;;;;;14.70;99.90;;;14.33;82.31;100878.75;5031607;28;20292;-65
2021/05/22 01:43:21;;;;;;;;;;;14.70;99.90;;;14.30;82.37;100871.19;5031516;28;19933;-64
2021/05/22 01:45:50;;;;;;;;;;;14.60;99.90;;;14.28;82.62;100878.88;5031708;28;19980;-64
2021/05/22 01:48:19;;;;;;;;;;;14.60;99.90;;;14.25;82.55;100874.84;5031794;28;20286;-64
2021/05/22 01:50:49;;;;;;;;;;;14.60;99.90;;;14.22;82.94;100875.47;5031766;28;19926;-65
2021/05/22 01:53:18;;;;;;;;;;;14.60;99.90;;;14.17;82.84;100868.25;5031874;28;19929;-64
2021/05/22 01:55:47;;;;;;;;;;;14.50;99.90;;;14.17;83.06;100867.44;5035549;28;19956;-64
2021/05/22 01:58:15;;;;;;;;;;;14.50;99.90;;;14.09;82.78;100860.84;5035622;28;19929;-64
2021/05/22 02:00:45;;;;;;;;;;;14.50;99.90;;;14.03;82.76;100861.28;5035604;28;20338;-65
2021/05/22 02:03:15;;;;;;;;;;;14.40;99.90;;;14.00;83.20;100854.56;5036071;28;19925;-64
2021/05/22 02:05:42;;;;;;;;;;;14.40;99.90;;;14.00;82.83;100848.31;5035457;28;20295;-64
2021/05/22 02:08:14;;;;;;;;;;;14.30;99.90;;;13.95;82.90;100848.47;5035429;28;19925;-64
2021/05/22 02:10:42;;;;;;;;;;;14.30;99.90;;;13.88;83.28;100837.22;5035441;28;19925;-64
2021/05/22 02:13:09;;;;;;;;;;;14.20;99.90;;;13.82;83.67;100833.84;5035624;28;19925;-64
2021/05/22 02:15:37;;;;;;;;;;;14.20;99.90;;;13.78;83.15;100824.69;5035403;28;20370;-64
2021/05/22 02:18:06;;;;;;;;;;;14.10;99.90;;;13.77;82.50;100823.06;5034923;28;20338;-64
2021/05/22 02:20:35;;;;;;;;;;;14.10;99.90;;;13.66;82.96;100824.44;5035199;28;19929;-64
2021/05/22 02:23:03;;;;;;;;;;;14.00;99.90;;;13.47;83.99;100812.97;5035517;28;20217;-64
2021/05/22 02:25:31;;;;;;;;;;;13.90;99.90;;;13.32;84.88;100805.19;5035366;28;19925;-64
2021/05/22 02:27:59;;;;;;;;;;;13.80;99.90;;;13.29;84.66;100803.91;5034791;28;20359;-64
2021/05/22 02:30:27;;;;;;;;;;;13.70;99.90;;;13.29;84.44;100801.19;5035022;28;19925;-65
2021/05/22 02:32:54;;;;;;;;;;;13.70;99.90;;;13.24;84.39;100804.03;5035125;28;19929;-65
2021/05/22 02:35:23;;;;;;;;;;;13.60;99.90;;;13.21;84.63;100795.69;5034970;28;19932;-64
2021/05/22 02:37:52;;;;;;;;;;;13.60;99.90;;;13.15;84.37;100789.56;5034350;28;19951;-64
2021/05/22 02:40:21;;;;;;;;;;;13.50;99.90;;;13.06;84.79;100785.97;5035006;28;20358;-64
2021/05/22 02:43:02;;;;;;;;;;;13.30;99.90;;;13.00;85.46;100801.56;5035029;28;19932;-65
2021/05/22 02:45:31;;;;;;;;;;;13.30;99.90;;;12.98;85.16;100797.56;5034699;28;19925;-64
2021/05/22 02:47:58;;;;;;;;;;;;;;;12.92;85.37;100801.50;5034447;28;19929;-65
2021/05/22 02:50:27;;;;;;;;;;;13.20;99.90;;;12.84;85.72;100811.16;5034878;28;19933;-64
2021/05/22 02:52:55;;;;;;;;;;;13.10;99.90;;;12.74;85.84;100807.84;5034784;28;19932;-64
2021/05/22 02:55:22;;;;;;;;;;;13.00;99.90;;;12.64;86.67;100813.50;5034501;28;19925;-65
2021/05/22 02:57:50;;;;;;;;;;;12.90;99.90;;;12.54;87.88;100809.88;5034081;28;19925;-64
2021/05/22 03:00:19;;;;;;;;;;;12.90;99.90;;;12.53;88.38;100810.97;5034563;28;20445;-64
2021/05/22 03:02:46;;;;;;;;;;;12.90;99.90;;;12.57;87.91;100803.84;5034591;28;19925;-65
2021/05/22 03:05:14;;;;;;;;;;;12.90;99.90;;;12.60;86.85;100816.00;5033853;28;20357;-65
2021/05/22 03:07:45;;;;;;;;;;;12.90;99.90;;;12.55;87.32;100810.69;5033800;28;19925;-64
2021/05/22 03:10:13;;;;;;;;;;;12.90;99.90;;;12.53;87.54;100819.13;5034386;28;19925;-65
2021/05/22 03:12:40;;;;;;;;;;;12.80;99.90;;;12.51;87.26;100815.91;5034466;28;19929;-64
2021/05/22 03:15:09;;;;;;;;;;;12.80;99.90;;;12.49;87.31;100822.75;5034010;28;19932;-64
2021/05/22 03:17:36;;;;;;;;;;;12.70;99.90;;;12.44;87.51;100836.41;5033796;28;19925;-64
2021/05/22 03:20:04;;;;;;;;;;;;;;;12.43;87.81;100824.75;5034218;28;19925;-65
2021/05/22 03:22:31;;;;;;;;;;;12.70;99.90;;;12.41;87.66;100834.28;5034479;28;19925;-64
2021/05/22 03:25:00;;;;;;;;;;;12.70;99.90;;;12.40;88.02;100828.06;5033788;28;19971;-64
2021/05/22 03:27:27;;;;;;;;;;;12.70;99.90;;;12.42;87.77;100833.19;5033496;28;20415;-65
2021/05/22 03:29:54;;;;;;;;;;;12.70;99.90;;;12.43;87.78;100830.16;5042084;28;20211;-64
2021/05/22 03:32:21;;;;;;;;;;;12.70;99.90;;;12.40;88.25;100828.06;5054043;28;19924;-64
2021/05/22 03:34:49;;;;;;;;;;;12.70;99.90;;;12.45;87.91;100827.16;5053606;28;20367;-65
2021/05/22 03:37:16;;;;;;;;;;;;;;;12.44;88.11;100825.53;5052961;28;19931;-64
2021/05/22 03:39:43;;;;;;;;;;;12.80;99.90;;;12.46;88.56;100829.56;5053910;28;19928;-64
2021/05/22 03:42:11;;;;;;;;;;;12.80;99.90;;;12.49;88.47;100828.97;5053963;28;19925;-64
2021/05/22 03:44:38;;;;;;;;;;;12.80;99.90;;;12.52;88.32;100822.16;5053388;28;19925;-65
2021/05/22 03:47:06;;;;;;;;;;;12.90;99.90;;;12.52;88.17;100816.72;5053158;28;19928;-64
2021/05/22 03:49:33;;;;;;;;;;;12.90;99.90;;;12.54;88.18;100814.50;5053538;28;19925;-65
2021/05/22 03:52:00;;;;;;;;;;;12.90;99.90;;;12.49;87.06;100823.53;5053643;28;20025;-64
2021/05/22 03:54:27;;;;;;;;;;;12.80;99.90;;;12.31;87.52;100821.72;5053293;28;19932;-64
2021/05/22 03:56:55;;;;;;;;;;;12.80;99.90;;;12.10;88.38;100806.94;5052780;28;19936;-64
2021/05/22 03:59:23;;;;;;;;;;;12.60;99.90;;;12.05;89.01;100807.88;5053314;28;19925;-65
2021/05/22 04:01:50;;;;;;;;;;;12.50;99.90;;;12.04;88.80;100806.25;5053578;28;19924;-64
2021/05/22 04:04:17;;;;;;;;;;;12.50;99.90;;;12.05;88.47;100810.56;5052968;28;19950;-64
2021/05/22 04:06:44;;;;;;;;;;;12.40;99.90;;;12.07;88.55;100815.69;5052711;28;19925;-64
2021/05/22 04:09:14;;;;;;;;;;;12.40;99.90;;;12.04;88.49;100805.44;5053378;28;20374;-64
2021/05/22 04:11:41;;;;;;;;;;;12.40;99.90;;;11.99;88.50;100803.66;5053215;28;19933;-64
2021/05/22 04:14:08;;;;;;;;;;;12.30;99.90;;;11.98;89.00;100804.75;5052944;28;19925;-64
2021/05/22 04:16:36;;;;;;;;;;;12.30;99.90;;;11.99;89.13;100803.66;5051616;28;19929;-64
2021/05/22 04:19:04;;;;;;;;;;;12.30;99.90;;;11.96;88.95;100804.25;5052888;28;19928;-64
2021/05/22 04:21:31;;;;;;;;;;;12.30;99.90;;;11.99;89.04;100800.13;5052906;28;19945;-64
2021/05/22 04:23:58;;;;;;;;;;;12.30;99.90;;;11.97;89.22;100794.22;5052136;28;19925;-64
2021/05/22 04:26:26;;;;;;;;;;;12.30;99.90;;;11.98;88.98;100790.38;5052389;28;19932;-64
2021/05/22 04:28:53;;;;;;;;;;;12.30;99.90;;;12.01;88.90;100797.91;5053040;28;19925;-64
2021/05/22 04:31:20;;;;;;;;;;;12.30;99.90;;;12.02;88.92;100796.81;5052617;28;20378;-64
2021/05/22 04:33:49;;;;;;;;;;;12.30;99.90;;;12.02;88.39;100797.63;5052610;28;19928;-64
2021/05/22 04:36:16;;;;;;;;;;;12.40;99.90;;;12.04;88.54;100800.81;5052219;28;19924;-64
2021/05/22 04:38:43;;;;;;;;;;;12.40;99.90;;;12.04;88.17;100803.53;5052664;28;19940;-65
2021/05/22 04:41:10;;;;;;;;;;;12.40;99.90;;;12.04;88.29;100806.25;5052743;28;20329;-65
2021/05/22 04:43:37;;;;;;;;;;;12.40;99.90;;;12.04;88.14;100803.53;5052302;28;19948;-64
2021/05/22 04:46:05;;;;;;;;;;;12.40;99.90;;;12.04;88.20;100803.53;5051883;28;19925;-65
2021/05/22 04:48:32;;;;;;;;;;;12.40;99.90;;;12.02;88.24;100818.50;5052686;28;19925;-65
2021/05/22 04:51:00;;;;;;;;;;;12.40;99.90;;;12.05;88.51;100805.16;5052480;28;20275;-65
2021/05/22 04:53:27;;;;;;;;;;;12.40;99.90;;;12.03;87.90;100815.50;5052290;28;19931;-64
2021/05/22 04:55:55;;;;;;;;;;;12.40;99.90;;;11.99;88.28;100819.09;5346172;22;20301;-62
2021/05/22 04:58:22;;;;;;;;;;;12.40;99.90;;;11.97;88.40;100816.69;5011814;28;19925;-62
2021/05/22 05:00:49;;;;;;;;;;;12.40;99.90;;;11.97;88.61;100811.28;5013002;28;19929;-62
2021/05/22 05:03:16;;;;;;;;;;;12.40;99.90;;;12.00;88.43;100815.28;5013415;28;19987;-62
2021/05/22 05:05:45;;;;;;;;;;;12.40;99.90;;;12.00;88.23;100821.53;5012765;28;19932;-62
2021/05/22 05:08:18;;;;;;;;;;;12.40;99.90;;;12.01;88.25;100820.41;5012802;28;19951;-62
2021/05/22 05:10:45;;;;;;;;;;;12.40;99.90;;;12.04;88.03;100824.41;5012962;28;19964;-62
2021/05/22 05:13:13;;;;;;;;;;;12.40;99.90;;;12.02;88.26;100824.72;5013001;28;20309;-62
2021/05/22 05:15:40;;;;;;;;;;;12.40;99.90;;;12.01;88.18;100830.44;5012594;28;19925;-62
2021/05/22 05:18:07;;;;;;;;;;;12.30;99.90;;;11.96;88.54;100831.34;5012393;28;20283;-62
2021/05/22 05:20:35;;;;;;;;;;;12.30;99.90;;;11.96;88.84;100838.66;5012881;28;19933;-62
2021/05/22 05:23:02;;;;;;;;;;;12.30;99.90;;;11.94;89.28;100847.09;5012986;28;19926;-62
2021/05/22 05:25:30;;;;;;;;;;;12.30;99.90;;;11.95;89.51;100837.03;5011866;28;19932;-62
2021/05/22 05:27:58;;;;;;;;;;;12.30;99.90;;;11.97;89.33;100837.56;5013733;28;19929;-62
2021/05/22 05:30:25;;;;;;;;;;;12.30;99.90;;;11.99;89.39;100840.78;5016823;28;19926;-61
2021/05/22 05:32:52;;;;;;;;;;;12.40;99.90;;;11.99;89.43;100846.19;5018213;28;19933;-63
2021/05/22 05:35:20;;;;;;;;;;;12.40;99.90;;;11.98;89.21;100850.81;5016512;28;19964;-62
2021/05/22 05:37:47;;;;;;;;;;;12.40;99.90;;;12.23;88.51;100856.88;5016495;28;19944;-62
2021/05/22 05:40:14;;;;;;;;;;;12.70;99.90;;;12.76;86.10;100854.47;5016624;28;19926;-62
2021/05/22 05:42:43;;;;;;;;;;;12.90;99.90;;;13.06;83.06;100854.63;5017664;28;19926;-62
2021/05/22 05:45:11;;;;;;;;;;;13.20;99.90;;;12.98;82.93;100859.97;5016096;28;19926;-62
2021/05/22 05:47:38;;;;;;;;;;;13.20;99.90;;;12.92;83.40;100856.56;5019589;28;19948;-62
2021/05/22 05:50:07;;;;;;;;;;;13.20;99.90;;;13.02;82.99;100869.09;5036223;28;19948;-62
2021/05/22 05:52:34;;;;;;;;;;;13.30;99.90;;;13.01;83.15;100868.28;5036274;28;20359;-62
2021/05/22 05:55:02;;;;;;;;;;;13.30;99.90;;;12.90;83.43;100871.53;5035656;28;19932;-62
2021/05/22 05:57:29;;;;;;;;;;;13.30;99.90;;;12.75;83.90;100867.22;5035665;28;19932;-62
2021/05/22 05:59:57;;;;;;;;;;;13.20;99.90;;;12.65;85.13;100875.56;5036189;28;20298;-62
2021/05/22 06:02:25;;;;;;;;;;;13.20;99.90;;;12.70;85.27;100880.09;5036094;28;19995;-62
2021/05/22 06:04:54;;;;;;;;;;;13.20;99.90;;;12.83;84.75;100876.56;5036270;28;19929;-62
2021/05/22 06:07:21;;;;;;;;;;;13.30;99.90;;;12.99;83.95;100872.44;5036800;28;19929;-61
2021/05/22 06:09:49;;;;;;;;;;;13.40;99.90;;;13.17;82.88;100876.94;5036003;28;19933;-62
2021/05/22 06:12:16;;;;;;;;;;;13.50;99.90;;;13.39;82.05;100876.19;5035974;28;19972;-62
2021/05/22 06:14:48;;;;;;;;;;;13.70;99.90;;;13.77;80.01;100877.44;5035698;28;20370;-62
2021/05/22 06:17:16;;;;;;;;;;;13.90;99.90;;;14.29;77.92;100888.66;5035302;28;19929;-62
2021/05/22 06:19:43;;;;;;;;;;;14.70;99.90;;;14.77;75.91;100884.06;5035786;28;19932;-62
2021/05/22 06:22:11;;;;;;;;;;;14.70;99.90;;;15.25;73.35;100875.81;5036380;28;19932;-62
2021/05/22 06:24:38;;;;;;;;;;;15.50;99.90;;;15.79;71.16;100874.38;5036331;28;20408;-62
2021/05/22 06:27:06;;;;;;;;;;;16.00;99.90;;;16.19;69.11;100873.03;5035926;28;19936;-62
2021/05/22 06:29:33;;;;;;;;;;;16.20;99.90;;;16.48;68.02;100875.00;5036029;28;19932;-62
2021/05/22 06:32:00;;;;;;;;;;;16.40;99.90;;;16.69;67.14;100872.34;5035542;28;19925;-62
2021/05/22 06:34:29;;;;;;;;;;;16.60;99.90;;;17.12;65.90;100867.44;5035896;28;20370;-62
2021/05/22 06:36:56;;;;;;;;;;;17.40;99.90;;;17.54;64.21;100870.97;5035005;28;19936;-63
2021/05/22 06:39:24;;;;;;;;;;;17.40;99.90;;;17.62;63.60;100880.25;5034648;28;19983;-63
2021/05/22 06:41:51;;;;;;;;;;;17.70;99.90;;;17.57;63.51;100880.47;5035016;28;19936;-62
2021/05/22 06:44:23;;;;;;;;;;;17.70;99.90;;;17.57;63.64;100875.00;5035545;28;19932;-62
2021/05/22 06:46:51;;;;;;;;;;;18.10;99.90;;;17.98;62.89;100866.72;5034310;28;19995;-62
2021/05/22 06:49:18;;;;;;;;;;;18.70;99.90;;;18.57;60.59;100871.88;5035386;28;20337;-63
2021/05/22 06:51:46;;;;;;;;;;;18.90;99.90;;;18.80;59.38;100875.75;5035287;28;20362;-62
2021/05/22 06:54:13;;;;;;;;;;;19.40;99.90;;;18.70;59.96;100870.72;5035257;28;19970;-62
2021/05/22 06:56:41;;;;;;;;;;;19.60;99.90;;;18.29;60.30;100860.75;5034275;28;19937;-62
2021/05/22 06:59:08;;;;;;;;;;;19.30;99.90;;;17.79;62.49;100860.94;5035062;28;19936;-62
2021/05/22 07:01:35;;;;;;;;;;;18.80;99.90;;;17.51;63.88;100862.66;5034799;28;19933;-63
2021/05/22 07:04:03;;;;;;;;;;;18.50;99.90;;;17.35;64.71;100862.44;5035132;28;19929;-63
2021/05/22 07:06:30;;;;;;;;;;;18.20;99.90;;;17.13;64.36;100862.78;5034255;28;19925;-62
2021/05/22 07:08:58;;;;;;;;;;;18.00;99.90;;;16.66;66.09;100878.47;5034916;28;20404;-63
2021/05/22 07:11:26;;;;;;;;;;;17.50;99.90;;;16.56;67.55;100871.47;5034758;28;20035;-62
2021/05/22 07:13:53;;;;;;;;;;;17.20;99.90;;;16.57;68.06;100866.78;5034959;28;20007;-62
2021/05/22 07:16:21;;;;;;;;;;;17.10;99.90;;;16.70;67.47;100869.31;5033837;28;19925;-63
2021/05/22 07:18:48;;;;;;;;;;;17.10;99.90;;;16.78;67.81;100868.44;5034720;28;19932;-63
2021/05/22 07:21:16;;;;;;;;;;;17.20;99.90;;;16.97;66.98;100870.75;5034904;28;19925;-62
2021/05/22 07:23:43;;;;;;;;;;;17.40;99.90;;;17.27;65.95;100863.31;5035184;28;20279;-62
2021/05/22 07:26:11;;;;;;;;;;;17.50;99.90;;;17.54;65.20;100870.19;5033585;28;19932;-62
2021/05/22 07:28:39;;;;;;;;;;;17.90;99.90;;;17.72;63.88;100868.94;5034485;28;19925;-62
2021/05/22 07:31:06;;;;;;;;;;;18.20;99.90;;;18.05;62.43;100864.25;5034466;28;19925;-62
2021/05/22 07:33:35;;;;;;;;;;;;;;;18.34;61.32;100875.00;5034586;28;20290;-62
2021/05/22 07:36:03;;;;;;;;;;;18.60;99.90;;;18.40;61.83;100873.63;5033284;28;19925;-62
2021/05/22 07:38:31;;;;;;;;;;;18.70;99.90;;;18.49;61.39;100877.09;5034391;28;20349;-62
2021/05/22 07:40:59;;;;;;;;;;;18.90;99.90;;;18.77;59.40;100879.97;5034433;28;19956;-62
2021/05/22 07:43:27;;;;;;;;;;;19.10;99.90;;;19.00;59.75;100881.09;5034539;28;20066;-62
2021/05/22 07:45:57;;;;;;;;;;;19.30;99.90;;;19.09;57.80;100880.94;5033397;28;19929;-63
2021/05/22 07:48:24;;;;;;;;;;;19.50;99.90;;;19.27;57.65;100884.25;5034118;28;19932;-62
2021/05/22 07:50:53;;;;;;;;;;;19.50;99.90;;;19.09;57.28;100887.22;5034298;28;19931;-62
2021/05/22 07:53:20;;;;;;;;;;;19.50;99.90;;;19.09;57.37;100880.94;5034082;28;19991;-62
2021/05/22 07:55:48;;;;;;;;;;;19.50;99.90;;;19.29;57.22;100885.50;5033371;28;19932;-62
2021/05/22 07:58:16;;;;;;;;;;;19.60;99.90;;;19.10;57.35;100882.56;5033663;28;19983;-63
2021/05/22 08:00:44;;;;;;;;;;;19.50;99.90;;;19.31;57.32;100885.94;5033967;28;19925;-63
2021/05/22 08:03:12;;;;;;;;;;;19.70;99.90;;;19.49;55.54;100890.03;5033939;28;19925;-62
2021/05/22 08:05:39;;;;;;;;;;;19.80;99.90;;;19.60;55.40;100887.59;5033479;28;19925;-63
2021/05/22 08:08:07;;;;;;;;;;;19.90;99.90;;;19.88;55.33;100884.88;5034101;28;20008;-62
2021/05/22 08:10:34;;;;;;;;;;;20.10;99.90;;;20.12;53.88;100880.03;5034163;28;19932;-62
2021/05/22 08:13:01;;;;;;;;;;;20.30;99.90;;;20.15;53.13;100873.06;5033669;28;19925;-62
2021/05/22 08:15:29;;;;;;;;;;;20.40;99.90;;;20.21;52.51;100870.84;5033240;28;19925;-63
2021/05/22 08:17:57;;;;;;;;;;;20.50;99.90;;;20.18;52.09;100886.84;5033162;28;19932;-62
2021/05/22 08:20:24;;;;;;;;;;;20.50;99.90;;;20.12;51.66;100882.00;5033674;28;19931;-62
2021/05/22 08:22:52;;;;;;;;;;;20.40;99.90;;;20.17;52.12;100882.53;5033369;28;20441;-63
2021/05/22 08:25:19;;;;;;;;;;;20.50;99.90;;;20.35;52.03;100885.75;5032970;28;19936;-62
2021/05/22 08:27:47;;;;;;;;;;;;;;;20.58;50.72;100881.22;5032995;28;19932;-62
2021/05/22 08:30:15;;;;;;;;;;;20.80;99.90;;;20.71;50.23;100881.94;5033071;28;19983;-62
2021/05/22 08:32:42;;;;;;;;;;;20.90;99.90;;;20.78;49.59;100900.53;5033207;28;19932;-63
2021/05/22 08:35:12;;;;;;;;;;;21.10;99.90;;;20.60;49.19;100903.66;5032770;28;19925;-62
2021/05/22 08:37:40;;;;;;;;;;;21.00;99.90;;;20.51;50.25;100908.53;5032641;28;20424;-62
2021/05/22 08:40:08;;;;;;;;;;;20.90;99.90;;;20.35;49.88;100899.50;5033522;28;19994;-62
2021/05/22 08:42:36;;;;;;;;;;;20.70;99.90;;;20.12;51.53;100898.47;5032811;28;19975;-63
2021/05/22 08:45:09;;;;;;;;;;;20.50;99.90;;;19.99;50.06;100894.97;5033768;28;19937;-62
2021/05/22 08:47:36;;;;;;;;;;;20.50;99.90;;;19.93;50.81;100895.59;5032556;28;19983;-62
2021/05/22 08:50:05;;;;;;;;;;;20.30;99.90;;;20.40;51.50;100881.94;5032933;28;20385;-63
2021/05/22 08:52:34;;;;;;;;;;;20.70;99.90;;;20.85;49.07;100873.25;5033059;28;20332;-62
2021/05/22 08:55:01;;;;;;;;;;;21.10;99.90;;;20.92;47.97;100871.44;5032647;28;19925;-62
2021/05/22 08:57:28;;;;;;;;;;;21.30;99.90;;;21.20;48.29;100882.31;5032450;28;19929;-62
2021/05/22 08:59:56;;;;;;;;;;;21.50;99.90;;;21.00;48.39;100891.66;5032835;28;20429;-62
2021/05/22 09:02:25;;;;;;;;;;;21.40;99.90;;;21.22;47.92;100886.28;5032494;28;19928;-62
2021/05/22 09:05:11;;;;;;;;;;;21.50;99.90;;;21.11;47.44;100885.28;5032470;28;19956;-63
2021/05/22 09:07:41;;;;;;;;;;;21.50;99.90;;;21.32;47.94;100892.38;5032353;28;19957;-63
2021/05/22 09:10:14;;;;;;;;;;;21.60;99.90;;;21.42;48.08;100883.56;5033023;28;19929;-62
2021/05/22 09:12:43;;;;;;;;;;;21.70;99.90;;;21.69;47.25;100866.84;5032754;28;19925;-62
2021/05/22 09:15:12;;;;;;;;;;;21.90;99.90;;;21.72;46.82;100870.81;5032244;28;19932;-62
2021/05/22 09:17:45;;;;;;;;;;;22.10;99.90;;;22.04;46.44;100858.47;5032089;28;19925;-63
2021/05/22 09:20:22;;;;;;;;;;;22.40;99.90;;;22.16;46.03;100866.56;5032694;28;19925;-62
2021/05/22 09:23:04;;;;;;;;;;;22.50;99.90;;;22.31;46.50;100862.91;5032246;28;19925;-62
2021/05/22 09:25:33;;;;;;;;;;;22.60;99.90;;;22.28;44.75;100855.38;5031950;28;19936;-63
2021/05/22 09:28:00;;;;;;;;;;;22.70;99.90;;;22.17;45.08;100864.63;5032307;28;19932;-62
2021/05/22 09:30:30;;;;;;;;;;;22.60;99.90;;;22.11;44.50;100866.88;5032680;28;19979;-62
2021/05/22 09:32:58;;;;;;;;;;;22.50;99.90;;;22.19;44.76;100870.56;5032633;28;19971;-62
2021/05/22 09:35:25;;;;;;;;;;;22.50;99.90;;;22.00;43.61;100871.41;5031844;28;19932;-62
2021/05/22 09:37:54;;;;;;;;;;;22.40;99.90;;;21.75;43.52;100870.91;5032379;28;19925;-62
2021/05/22 09:40:24;;;;;;;;;;;22.20;99.90;;;21.59;42.77;100872.94;5033307;28;19929;-62
2021/05/22 09:42:52;;;;;;;;;;;22.10;99.90;;;21.71;44.57;100869.22;5032654;28;19929;-62
2021/05/22 09:45:24;;;;;;;;;;;22.10;99.90;;;21.66;43.66;100869.53;5031940;28;19979;-63
2021/05/22 09:47:52;;;;;;;;;;;22.10;99.90;;;21.72;44.61;100863.38;5031990;28;20433;-62
2021/05/22 09:50:34;;;;;;;;;;;22.20;99.90;;;22.04;42.43;100852.19;5032269;28;19925;-62
2021/05/22 09:53:19;;;;;;;;;;;22.40;99.90;;;22.06;42.31;100849.88;5032571;28;19952;-62
2021/05/22 09:56:11;;;;;;;;;;;22.50;99.90;;;21.82;43.00;100858.44;5032286;28;19968;-63
2021/05/22 09:58:40;;;;;;;;;;;22.30;99.90;;;21.92;42.74;100868.88;5032103;28;19952;-62
2021/05/22 10:01:07;;;;;;;;;;;22.30;99.90;;;22.04;43.67;100852.19;5032432;28;19929;-62
2021/05/22 10:03:34;;;;;;;;;;;22.40;99.90;;;22.02;41.86;100840.75;5032131;28;19975;-63
2021/05/22 10:06:02;;;;;;;;;;;22.40;99.90;;;22.06;43.92;100845.16;5030964;28;20460;-62
2021/05/22 10:08:29;;;;;;;;;;;22.50;99.90;;;22.15;43.37;100842.16;5032186;28;19929;-62
2021/05/22 10:10:58;;;;;;;;;;;22.60;99.90;;;22.30;43.60;100839.28;5032435;28;19929;-62
2021/05/22 10:13:26;;;;;;;;;;;22.70;99.90;;;22.27;44.42;100861.25;5032791;28;20378;-62
2021/05/22 10:15:54;;;;;;;;;;;22.70;99.90;;;22.30;43.30;100855.81;5033408;28;19925;-63
2021/05/22 10:18:22;;;;;;;;;;;22.70;99.90;;;22.26;41.04;100865.97;5035293;28;20506;-63
2021/05/22 10:20:50;;;;;;;;;;;22.70;99.90;;;22.33;43.19;100857.84;5035953;28;19979;-62
2021/05/22 10:23:18;;;;;;;;;;;22.70;99.90;;;22.53;42.90;100866.00;5036737;28;20305;-62
2021/05/22 10:25:47;;;;;;;;;;;22.90;99.90;;;22.54;41.73;100878.63;5034972;28;19932;-63
2021/05/22 10:28:15;;;;;;;;;;;22.90;99.90;;;22.65;41.63;100866.63;5035053;28;19925;-62
2021/05/22 10:30:42;;;;;;;;;;;23.00;99.90;;;22.84;40.46;100865.75;5035662;28;19979;-62
2021/05/22 10:33:11;;;;;;;;;;;23.20;99.90;;;23.01;46.96;100858.91;5035837;28;19976;-62
2021/05/22 10:35:43;;;;;;;;;;;23.40;99.90;;;22.53;46.79;100858.53;5034728;28;20393;-62
2021/05/22 10:38:10;;;;;;;;;;;23.20;99.90;;;21.99;47.89;100849.72;5034699;28;19929;-63
2021/05/22 10:40:46;;;;;;;;;;;22.70;99.90;;;21.73;48.77;100862.19;5035525;28;19929;-63
2021/05/22 10:43:15;;;;;;;;;;;22.40;99.90;;;21.75;48.98;100859.88;5035591;28;19929;-63
2021/05/22 10:45:43;;;;;;;;;;;22.30;99.90;;;21.56;49.09;100865.41;5034935;28;19925;-62
2021/05/22 10:48:43;;;;;;;;;;;22.10;99.90;;;21.50;47.62;100855.84;5035335;28;19929;-63
2021/05/22 10:51:22;;;;;;;;;;;22.10;99.90;;;21.09;47.94;100849.09;5036134;28;19926;-62
2021/05/22 10:53:55;;;;;;;;;;;21.40;99.90;;;20.81;47.99;100845.66;5035397;28;19979;-62
2021/05/22 10:56:22;;;;;;;;;;;;;;;20.68;48.67;100855.16;5033943;28;20390;-63
2021/05/22 10:59:14;;;;;;;;;;;21.20;99.90;;;20.73;48.83;100860.41;5034680;28;20393;-63
2021/05/22 11:01:45;;;;;;;;;;;21.20;99.90;;;21.23;47.23;100859.59;5027037;28;19925;-63
2021/05/22 11:04:29;;;;;;;;;;;21.60;99.90;;;21.24;49.70;100850.19;5035281;28;19925;-62
2021/05/22 11:06:57;;;;;;;;;;;21.70;99.90;;;21.04;49.77;100856.78;5033872;28;20394;-63
2021/05/22 11:09:44;;;;;;;;;;;21.60;99.90;;;20.94;50.34;100860.09;5034499;28;20278;-62
2021/05/22 11:12:49;;;;;;;;;;;21.40;99.90;;;21.11;49.49;100870.72;5035471;28;19929;-63
2021/05/22 11:15:54;;;;;;;;;;;21.60;99.90;;;21.00;48.54;100869.66;5034386;28;19925;-63
2021/05/22 11:18:24;;;;;;;;;;;21.50;99.90;;;21.10;49.96;100877.38;5034318;28;20057;-62
2021/05/22 11:21:18;;;;;;;;;;;21.50;99.90;;;21.64;46.58;100869.09;5036202;28;19929;-62